Time;durP1;ratioP1;P1;durP2;ratioP2;P2;SDS_P1;SDS_P2;PMS_P1;PMS_P2;Temp;Humidity;BMP_temperature;BMP_pressure;BME280_temperature;BME280_humidity;BME280_pressure;Samples;Min_cycle;Max_cycle;Signal;HPM_P1;HPM_P2
2022/12/22 03:27:03;;;;;;;2.45;2.30;;;;;;;-0.32;100.00;100005.41;6180637;23;20093;-89
2022/12/22 03:29:28;;;;;;;0.93;0.93;;;;;;;-0.38;100.00;99987.81;6156232;23;20033;-89
2022/12/22 03:31:54;;;;;;;6.85;4.03;;;;;;;-0.46;100.00;99994.28;6180910;23;20107;-90
2022/12/22 03:34:19;;;;;;;5.22;4.75;;;;;;;-0.47;100.00;100011.78;6156473;23;20036;-89
2022/12/22 03:36:45;;;;;;;3.90;3.13;;;;;;;-0.51;100.00;100019.13;6182371;23;20072;-90
2022/12/22 03:39:10;;;;;;;2.97;2.67;;;;;;;-0.38;100.00;100012.34;6155936;23;20403;-90
2022/12/22 03:47:04;;;;;;;5.90;3.65;;;;;;;-0.42;100.00;99994.34;6182618;23;20021;-90
2022/12/22 03:49:30;;;;;;;1.83;1.63;;;;;;;-0.40;100.00;100006.44;6181994;23;20005;-89
2022/12/22 03:51:56;;;;;;;1.73;1.63;;;;;;;-0.44;100.00;99994.69;6180112;23;20025;-90
2022/12/22 03:54:23;;;;;;;1.85;1.75;;;;;;;-0.49;100.00;99962.34;6155380;23;20001;-89
2022/12/22 03:56:49;;;;;;;2.53;2.30;;;;;;;-0.36;100.00;99999.13;6156036;23;20009;-90
2022/12/22 03:59:16;;;;;;;1.60;1.50;;;;;;;-0.38;100.00;100001.44;6154944;23;20087;-89
2022/12/22 04:01:44;;;;;;;1.17;1.17;;;;;;;-0.38;100.00;99990.53;6182733;23;20515;-90
2022/12/22 04:04:11;;;;;;;1.75;1.60;;;;;;;-0.39;100.00;99994.41;6155540;23;20342;-91
2022/12/22 04:06:37;;;;;;;1.60;1.50;;;;;;;-0.40;100.00;99998.28;6155743;23;20084;-89
2022/12/22 04:09:02;;;;;;;3.25;2.53;;;;;;;-0.56;100.00;99984.78;6155613;23;20033;-90
2022/12/22 04:14:12;;;;;;;6.65;5.10;;;;;;;-0.45;100.00;99987.69;6157384;23;20120;-90
2022/12/22 04:16:38;;;;;;;1.98;1.88;;;;;;;-0.47;100.00;99979.09;6153619;23;20096;-90
2022/12/22 04:19:05;;;;;;;1.58;1.48;;;;;;;-0.53;100.00;99967.72;6153758;23;20015;-90
2022/12/22 04:21:31;;;;;;;4.00;3.60;;;;;;;-0.38;100.00;99985.09;6155144;23;20500;-89
2022/12/22 04:23:56;;;;;;;0.70;0.70;;;;;;;-0.65;100.00;99937.16;6155392;23;20048;-89
2022/12/22 04:26:23;;;;;;;0.85;0.85;;;;;;;-0.49;100.00;99959.59;6131153;23;20005;-90
2022/12/22 04:28:50;;;;;;;1.55;1.45;;;;;;;-0.40;100.00;99973.75;6155319;23;20005;-89
2022/12/22 04:31:15;;;;;;;1.98;1.88;;;;;;;-0.49;100.00;99962.34;6156004;23;20017;-90
2022/12/22 04:33:41;;;;;;;3.13;2.17;;;;;;;-0.42;100.00;99973.34;6155101;23;20011;-91
2022/12/22 04:36:07;;;;;;;10.63;3.90;;;;;;;-0.29;100.00;99982.91;6130277;23;20017;-90
2022/12/22 04:38:33;;;;;;;4.30;2.75;;;;;;;-0.28;100.00;99984.44;6131013;23;20009;-90
2022/12/22 04:40:58;;;;;;;0.68;0.68;;;;;;;-0.31;100.00;99979.75;6155803;23;20409;-90
2022/12/22 04:43:24;;;;;;;1.48;1.38;;;;;;;-0.29;100.00;99980.19;6153868;23;20017;-89
2022/12/22 04:45:53;;;;;;;3.28;1.17;;;;;;;-0.37;100.00;99975.75;6154341;23;20337;-89
2022/12/22 04:48:19;;;;;;;2.17;2.08;;;;;;;-0.27;100.00;99985.25;6155501;23;20341;-90
2022/12/22 04:50:45;;;;;;;3.03;2.20;;;;;;;-0.28;100.00;99984.44;6155361;23;20013;-89
2022/12/22 04:53:10;;;;;;;1.58;1.48;;;;;;;-0.29;100.00;99982.13;6182148;23;20005;-89
2022/12/22 04:55:36;;;;;;;5.43;2.83;;;;;;;-0.33;100.00;99971.16;6154807;23;20004;-89
2022/12/22 04:58:02;;;;;;;1.10;1.10;;;;;;;-0.27;100.00;99991.50;6155231;23;20013;-90
2022/12/22 05:00:27;;;;;;;2.40;2.20;;;;;;;-0.33;100.00;99976.59;6155957;23;20009;-90
2022/12/22 05:02:53;;;;;;;1.55;1.45;;;;;;;-0.28;100.00;99980.97;6155179;23;20112;-90
2022/12/22 05:05:18;;;;;;;4.53;1.08;;;;;;;-0.28;100.00;99978.25;6155654;23;20468;-89
2022/12/22 05:07:44;;;;;;;7.80;2.50;;;;;;;-0.39;100.00;99955.47;6183874;23;20016;-89
2022/12/22 05:10:11;;;;;;;0.52;0.52;;;;;;;-0.24;100.00;99963.50;6157566;23;20479;-90
2022/12/22 05:12:54;;;;;;;1.80;1.70;;;;;;;-0.41;100.00;99941.44;6130341;23;20564;-90
2022/12/22 05:15:24;;;;;;;1.25;1.15;;;;;;;-0.28;100.00;99961.88;6159799;23;20066;-90
2022/12/22 05:17:50;;;;;;;12.52;4.88;;;;;;;-0.20;100.00;99969.78;6154443;23;20075;-89
2022/12/22 05:20:16;;;;;;;2.92;2.15;;;;;;;-0.30;100.00;99956.00;6157328;23;20009;-90
2022/12/22 05:22:41;;;;;;;0.98;0.98;;;;;;;-0.27;100.00;99956.06;6157507;23;20009;-89
2022/12/22 05:25:07;;;;;;;7.30;4.60;;;;;;;-0.23;100.00;99953.38;6157477;23;20013;-89
2022/12/22 05:27:33;;;;;;;2.15;2.05;;;;;;;-0.25;100.00;99961.94;6156188;23;20011;-89
2022/12/22 05:29:58;;;;;;;2.15;1.27;;;;;;;-0.24;100.00;99958.03;6157046;23;20052;-89
2022/12/22 05:32:24;;;;;;;0.38;0.38;;;;;;;-0.27;100.00;99950.59;6182911;23;20067;-89
2022/12/22 05:34:49;;;;;;;2.00;1.52;;;;;;;-0.15;100.00;99966.75;6131359;23;20024;-89
2022/12/22 05:37:15;;;;;;;1.58;1.48;;;;;;;-0.20;100.00;99947.22;6132695;23;20071;-89
2022/12/22 05:39:41;;;;;;;9.85;5.20;;;;;;;-0.19;100.00;99937.84;6157016;23;20015;-88
2022/12/22 05:42:06;;;;;;;2.30;0.85;;;;;;;-0.20;100.00;99947.22;6156468;23;20016;-88
2022/12/22 05:44:31;;;;;;;3.70;3.30;;;;;;;-0.13;100.00;99963.66;6155787;23;20045;-89
2022/12/22 05:46:57;;;;;;;1.42;1.33;;;;;;;-0.12;100.00;99968.75;6154788;23;20336;-89
2022/12/22 05:49:23;;;;;;;2.45;2.28;;;;;;;-0.16;100.00;99967.91;6180340;23;20013;-88
2022/12/22 05:51:48;;;;;;;2.20;2.10;;;;;;;-0.17;100.00;99960.91;6179976;23;20024;-89
2022/12/22 05:54:14;;;;;;;4.50;2.30;;;;;;;-0.05;100.00;99981.72;6178010;23;20009;-90
2022/12/22 05:56:40;;;;;;;7.88;4.55;;;;;;;-0.07;100.00;99998.41;6131099;23;20143;-90
2022/12/22 05:59:05;;;;;;;3.38;2.97;;;;;;;-0.22;100.00;99972.09;6153091;23;20017;-89
2022/12/22 06:01:31;;;;;;;2.05;1.92;;;;;;;-0.05;100.00;100004.31;6154252;23;20016;-90
2022/12/22 06:03:56;;;;;;;2.15;2.05;;;;;;;0.05;100.00;100013.00;6153917;23;20020;-90
2022/12/22 06:06:22;;;;;;;1.88;1.75;;;;;;;0.03;100.00;100020.78;6154889;23;20005;-90
2022/12/22 06:08:47;;;;;;;2.45;2.25;;;;;;;-0.11;100.00;100002.25;6180882;23;20021;-90
2022/12/22 06:11:17;;;;;;;3.80;3.50;;;;;;;-0.02;100.00;100011.75;6181654;23;20058;-90
2022/12/22 06:13:44;;;;;;;4.57;1.85;;;;;;;0.08;100.00;100036.84;6155614;23;20016;-89
2022/12/22 06:16:10;;;;;;;3.10;2.08;;;;;;;0.08;100.00;100028.66;6154931;23;20063;-90
2022/12/22 06:18:35;;;;;;;1.92;1.77;;;;;;;0.03;100.00;100031.69;6154694;23;20367;-89
2022/12/22 06:21:01;;;;;;;5.10;2.47;;;;;;;-0.16;100.00;100000.63;6154882;23;20340;-90
2022/12/22 06:23:26;;;;;;;2.40;1.98;;;;;;;0.05;100.00;100023.91;6106348;23;20020;-90
2022/12/22 06:25:55;;;;;;;3.15;2.85;;;;;;;0.04;100.00;100011.44;6181705;23;20009;-90
2022/12/22 06:28:21;;;;;;;9.90;2.35;;;;;;;0.00;100.00;100006.69;6103171;23;20043;-91
2022/12/22 06:30:47;;;;;;;1.75;1.65;;;;;;;-0.02;100.00;99998.13;6179909;23;20016;-90
2022/12/22 06:33:13;;;;;;;1.92;1.83;;;;;;;0.09;100.00;100013.84;6179691;23;20055;-92
2022/12/22 06:35:39;;;;;;;1.92;1.80;;;;;;;0.05;100.00;100002.09;6156798;23;20425;-90
2022/12/22 06:38:05;;;;;;;3.83;3.03;;;;;;;0.12;100.00;100024.81;6181611;23;20032;-90
2022/12/22 06:40:30;;;;;;;3.90;2.13;;;;;;;-0.05;100.00;99987.94;6154385;23;20043;-91
2022/12/22 06:43:08;;;;;;;3.10;2.90;;;;;;;0.03;100.00;100009.88;6180056;23;20087;-91
2022/12/22 06:45:38;;;;;;;2.47;2.28;;;;;;;0.04;100.00;100000.53;6182815;23;20020;-90
2022/12/22 06:48:04;;;;;;;1.67;1.58;;;;;;;-0.08;100.00;99987.91;6129908;23;20219;-92
2022/12/22 06:50:30;;;;;;;4.55;1.77;;;;;;;-0.08;100.00;99985.19;6155568;23;20341;-91
2022/12/22 06:52:56;;;;;;;3.35;3.05;;;;;;;-0.02;100.00;99989.16;6155084;23;20005;-91
2022/12/22 06:55:21;;;;;;;2.47;2.28;;;;;;;-0.18;100.00;99958.53;6181877;23;20028;-91
2022/12/22 06:57:47;;;;;;;2.50;2.33;;;;;;;0.00;100.00;99984.13;6154783;23;20017;-91
2022/12/22 07:00:13;;;;;;;4.07;2.95;;;;;;;-0.02;100.00;99998.13;6155292;23;20017;-90
2022/12/22 07:02:38;;;;;;;4.05;3.40;;;;;;;-0.03;100.00;99982.91;6153187;23;20128;-91
2022/12/22 07:05:04;;;;;;;3.97;3.70;;;;;;;-0.01;100.00;99994.25;6179942;23;20048;-91
2022/12/22 07:07:30;;;;;;;3.40;1.88;;;;;;;0.06;100.00;100003.66;6180145;23;20024;-91
2022/12/22 07:09:56;;;;;;;6.72;3.55;;;;;;;-0.01;100.00;99983.34;6179382;23;20009;-89
2022/12/22 07:12:22;;;;;;;4.40;3.30;;;;;;;0.07;100.00;99994.34;6152410;23;20013;-90
2022/12/22 07:14:48;;;;;;;3.17;2.88;;;;;;;-0.09;100.00;99961.78;6177699;23;20401;-90
2022/12/22 07:17:14;;;;;;;2.25;1.58;;;;;;;0.00;100.00;99978.69;6128434;23;20013;-89
2022/12/22 07:19:39;;;;;;;4.95;3.42;;;;;;;-0.08;100.00;99977.75;6155132;23;20084;-90
2022/12/22 07:22:05;;;;;;;1.02;1.02;;;;;;;-0.23;100.00;99954.16;6180766;23;20339;-90
2022/12/22 07:24:30;;;;;;;1.50;1.40;;;;;;;-0.11;100.00;99973.03;6153173;23;20020;-90
2022/12/22 07:26:56;;;;;;;3.90;3.70;;;;;;;0.10;100.00;99993.59;6154319;23;20335;-89
2022/12/22 07:29:22;;;;;;;6.18;2.95;;;;;;;0.00;100.00;99984.13;6151943;23;20456;-91
2022/12/22 07:31:48;;;;;;;3.45;2.55;;;;;;;-0.05;100.00;99977.03;6125400;23;20005;-90
2022/12/22 07:34:13;;;;;;;3.97;2.42;;;;;;;0.16;100.00;99992.16;6152644;23;20076;-89
2022/12/22 07:36:39;;;;;;;4.18;3.72;;;;;;;-0.08;100.00;99953.22;6152303;23;20008;-90
2022/12/22 07:39:05;;;;;;;2.10;1.98;;;;;;;0.06;100.00;99987.31;6178023;23;20308;-90
2022/12/22 07:44:15;;;;;;;2.42;1.83;;;;;;;0.29;100.00;99974.38;6155204;23;20018;-90
2022/12/22 07:46:41;;;;;;;2.10;2.00;;;;;;;0.34;100.00;99982.25;6177889;23;20482;-92
2022/12/22 07:51:51;;;;;;;7.05;2.10;;;;;;;0.11;100.00;99957.78;6159203;23;20519;-91
2022/12/22 07:54:17;;;;;;;2.58;2.40;;;;;;;0.31;100.00;99991.97;6155091;23;20009;-89
2022/12/22 07:56:44;;;;;;;3.45;3.15;;;;;;;0.30;100.00;99981.41;6155833;23;20021;-90
2022/12/22 07:59:10;;;;;;;3.28;3.00;;;;;;;0.18;100.00;99951.63;6154673;23;20016;-91
2022/12/22 08:01:35;;;;;;;3.20;2.83;;;;;;;0.33;100.00;99962.34;6155181;23;20477;-91
2022/12/22 08:04:02;;;;;;;1.63;1.52;;;;;;;0.18;100.00;99946.19;6154718;23;20009;-91
2022/12/22 08:06:27;;;;;;;2.20;2.08;;;;;;;0.24;100.00;99955.63;6155406;23;20013;-92
2022/12/22 08:08:53;;;;;;;6.32;5.72;;;;;;;0.45;100.00;99977.72;6130677;23;20005;-92
2022/12/22 08:11:18;;;;;;;3.35;3.15;;;;;;;0.50;100.00;99974.66;6156353;23;20068;-91
2022/12/22 08:13:45;;;;;;;6.97;3.20;;;;;;;0.52;100.00;99966.91;6154863;23;20023;-92
2022/12/22 08:18:39;;;;;;;2.85;2.67;;;;;;;0.42;100.00;99951.16;6242805;23;20440;-92
2022/12/22 08:21:06;;;;;;;3.13;2.78;;;;;;;0.60;100.00;99974.03;6164894;23;20022;-90
2022/12/22 08:23:32;;;;;;;1.67;1.58;;;;;;;0.54;100.00;99964.56;6165130;23;20008;-91
2022/12/22 08:26:13;;;;;;;6.80;3.83;;;;;;;0.65;100.00;99979.13;6163885;23;20016;-91
2022/12/22 08:28:53;;;;;;;1.50;1.48;;;;;;;0.77;100.00;99972.66;6188566;23;20502;-90
2022/12/22 08:31:19;;;;;;;4.35;3.15;;;;;;;0.77;100.00;99967.97;6213670;23;20018;-91
2022/12/22 08:33:46;;;;;;;3.22;2.97;;;;;;;0.84;100.00;99968.06;6163847;23;20361;-92
2022/12/22 08:36:12;;;;;;;2.15;2.05;;;;;;;0.85;100.00;99964.16;6189288;23;20012;-90
2022/12/22 08:38:39;;;;;;;1.55;1.48;;;;;;;0.77;100.00;99940.66;6189021;23;20074;-92
2022/12/22 08:41:07;;;;;;;5.72;2.65;;;;;;;0.92;100.00;99964.25;6189952;23;20000;-92
2022/12/22 08:43:33;;;;;;;4.95;3.20;;;;;;;1.02;100.00;99954.59;6190570;23;20344;-91
2022/12/22 08:45:59;;;;;;;3.70;2.92;;;;;;;1.21;100.00;99986.41;6165366;23;20008;-91
2022/12/22 08:48:24;;;;;;;0.38;0.38;;;;;;;1.19;100.00;99956.72;6166192;23;20000;-91
2022/12/22 08:50:50;;;;;;;6.13;3.70;;;;;;;1.24;100.00;99958.31;6190288;23;20018;-90
2022/12/22 08:53:15;;;;;;;6.55;2.60;;;;;;;1.10;100.00;99922.66;6189424;23;20019;-91
2022/12/22 08:55:41;;;;;;;3.22;1.25;;;;;;;1.26;100.00;99948.56;6216412;23;20059;-91
2022/12/22 08:58:06;;;;;;;3.42;3.13;;;;;;;1.33;100.00;99945.13;6215300;23;20083;-90
2022/12/22 09:00:32;;;;;;;4.47;2.92;;;;;;;1.31;100.00;99952.91;6213633;23;20011;-91
2022/12/22 09:02:58;;;;;;;2.30;2.20;;;;;;;1.27;100.00;99952.09;6211962;23;20112;-92
2022/12/22 09:05:23;;;;;;;4.63;2.38;;;;;;;1.43;100.00;99949.91;6209321;23;20369;-92
2022/12/22 09:07:49;;;;;;;1.75;1.65;;;;;;;1.52;100.00;99974.97;6183405;23;20476;-92
2022/12/22 09:10:14;;;;;;;3.00;2.20;;;;;;;1.54;100.00;99960.94;6209533;23;20390;-91
2022/12/22 09:12:40;;;;;;;1.08;1.05;;;;;;;1.48;100.00;99949.56;6133511;23;20021;-91
2022/12/22 09:15:07;;;;;;;5.25;4.72;;;;;;;1.56;100.00;99948.44;6184312;23;20023;-90
2022/12/22 09:17:34;;;;;;;3.13;2.85;;;;;;;1.55;100.00;99925.00;6179859;23;20400;-91
2022/12/22 09:20:01;;;;;;;3.65;2.70;;;;;;;1.32;100.00;99891.63;6179534;23;20020;-90
2022/12/22 09:22:27;;;;;;;5.72;2.78;;;;;;;1.58;100.00;99923.47;6179984;23;20009;-90
2022/12/22 09:24:52;;;;;;;2.30;2.20;;;;;;;1.42;100.00;99876.50;6180176;23;20117;-91
2022/12/22 09:27:18;;;;;;;6.07;4.30;;;;;;;1.62;100.00;99903.19;6181809;23;20322;-91
2022/12/22 09:29:43;;;;;;;4.10;3.75;;;;;;;1.62;100.00;99897.72;6180338;23;20024;-91
2022/12/22 09:32:09;;;;;;;1.52;1.42;;;;;;;1.71;100.00;99917.31;6176637;23;20060;-91
2022/12/22 09:34:34;;;;;;;2.58;2.38;;;;;;;1.71;100.00;99922.78;6128460;23;20036;-91
2022/12/22 09:37:00;;;;;;;1.40;1.15;;;;;;;1.86;100.00;99916.22;6153446;23;20009;-92
2022/12/22 09:39:25;;;;;;;7.65;4.40;;;;;;;2.03;100.00;99933.13;6178138;23;20295;-91
2022/12/22 09:41:53;;;;;;;2.15;2.05;;;;;;;1.93;100.00;99915.50;6177560;23;20012;-91
2022/12/22 09:44:25;;;;;;;2.53;2.22;;;;;;;1.93;100.00;99912.78;6178880;23;20080;-91
2022/12/22 09:46:56;;;;;;;3.38;3.17;;;;;;;1.73;100.00;99865.78;6176251;23;20029;-92
2022/12/22 09:49:22;;;;;;;2.80;1.75;;;;;;;2.01;100.00;99902.66;6152484;23;20012;-90
2022/12/22 09:51:51;;;;;;;1.98;1.88;;;;;;;1.97;100.00;99896.38;6152273;23;20068;-91
2022/12/22 09:54:17;;;;;;;3.33;3.13;;;;;;;2.07;100.00;99890.94;6152896;23;20067;-91
2022/12/22 09:56:42;;;;;;;1.95;1.85;;;;;;;2.13;100.00;99885.91;6152321;23;20021;-92
2022/12/22 09:59:14;;;;;;;5.13;2.88;;;;;;;2.19;100.00;99879.66;6152431;23;20405;-90
2022/12/22 10:01:56;;;;;;;4.07;3.80;;;;;;;2.31;100.00;99878.53;6151497;23;20020;-91
2022/12/22 10:04:40;;;;;;;5.07;2.90;;;;;;;2.42;100.00;99871.19;6176331;23;20017;-91
2022/12/22 10:07:35;;;;;;;2.65;2.47;;;;;;;2.48;100.00;99875.09;6153014;23;20346;-92
2022/12/22 10:10:26;;;;;;;1.15;1.15;;;;;;;2.55;100.00;99866.13;6153430;23;20405;-91
2022/12/22 10:13:03;;;;;;;1.40;0.85;;;;;;;2.60;100.00;99852.84;6153764;23;20017;-90
2022/12/22 10:15:39;;;;;;;3.63;2.67;;;;;;;2.55;100.00;99834.03;6152009;23;20013;-91
2022/12/22 10:18:16;;;;;;;4.53;3.83;;;;;;;2.73;100.00;99851.31;6152999;23;20488;-90
2022/12/22 10:20:45;;;;;;;4.93;2.92;;;;;;;2.49;100.00;99818.38;6128639;23;20095;-90
2022/12/22 10:23:24;;;;;;;1.45;1.35;;;;;;;2.55;100.00;99823.09;6153783;23;20415;-90
2022/12/22 10:25:55;;;;;;;5.43;2.17;;;;;;;2.87;100.00;99855.25;6128356;23;20100;-92
2022/12/22 10:28:24;;;;;;;2.55;2.38;;;;;;;3.00;100.00;99831.75;6179227;23;20013;-91
2022/12/22 10:31:12;;;;;;;3.28;2.28;;;;;;;3.08;100.00;99819.63;6127299;23;20051;-91
2022/12/22 10:33:39;;;;;;;4.75;2.17;;;;;;;3.31;100.00;99841.94;6128659;23;20031;-91
2022/12/22 10:36:05;;;;;;;2.22;2.05;;;;;;;3.39;100.00;99835.28;6153713;23;20020;-91
2022/12/22 10:38:36;;;;;;;4.05;3.75;;;;;;;3.40;100.00;99823.13;6128574;23;20038;-92
2022/12/22 10:41:16;;;;;;;4.47;1.50;;;;;;;3.54;100.00;99834.09;6154139;23;20107;-91
2022/12/22 10:44:20;;;;;;;3.75;2.80;;;;;;;3.54;100.00;99828.59;6126489;23;20067;-91
2022/12/22 10:46:48;;;;;;;4.70;2.90;;;;;;;3.58;100.00;99785.50;6111073;23;20024;-90
2022/12/22 10:49:27;;;;;;;5.70;5.10;;;;;;;3.82;100.00;99811.28;6152325;23;20140;-91
2022/12/22 10:51:55;;;;;;;3.10;2.55;;;;;;;3.62;100.00;99780.78;6127891;23;20028;-90
2022/12/22 10:54:32;;;;;;;2.53;2.35;;;;;;;3.83;100.00;99812.06;6129108;23;20433;-91
2022/12/22 10:56:59;;;;;;;5.93;3.80;;;;;;;3.88;100.00;99803.44;6126334;23;20074;-92
2022/12/22 10:59:25;;;;;;;3.33;3.03;;;;;;;3.66;100.00;99772.53;6152821;23;20005;-92
2022/12/22 11:01:50;;;;;;;6.05;3.60;;;;;;;3.70;100.00;99781.53;6152436;23;20025;-92
2022/12/22 11:04:27;;;;;;;3.92;3.60;;;;;;;4.04;100.00;99806.50;6128785;23;20009;-91
2022/12/22 11:06:54;;;;;;;5.22;4.72;;;;;;;4.21;100.00;99806.41;6153910;23;20013;-91
2022/12/22 11:09:21;;;;;;;4.55;3.15;;;;;;;4.38;100.00;99815.75;6129356;23;20013;-91
2022/12/22 11:11:51;;;;;;;3.20;1.73;;;;;;;4.20;100.00;99782.13;6151596;23;20020;-91
2022/12/22 11:14:44;;;;;;;4.85;3.25;;;;;;;4.30;100.00;99808.72;6127984;23;20017;-91
2022/12/22 11:17:13;;;;;;;3.45;3.20;;;;;;;4.37;100.00;99792.19;6177282;23;20013;-91
2022/12/22 11:19:50;;;;;;;4.28;3.97;;;;;;;4.39;100.00;99802.81;6126755;23;20020;-90
2022/12/22 11:22:19;;;;;;;5.07;3.55;;;;;;;4.61;100.00;99807.75;6179751;23;20024;-92
2022/12/22 11:25:11;;;;;;;9.68;2.40;;;;;;;4.61;100.00;99796.75;6178447;23;20332;-91
2022/12/22 11:27:53;;;;;;;3.78;3.05;;;;;;;4.95;100.00;99793.38;6176858;23;20400;-91
2022/12/22 11:30:41;;;;;;;3.17;2.97;;;;;;;5.00;100.00;99779.22;6177475;23;20013;-91
2022/12/22 11:33:31;;;;;;;0.95;0.95;;;;;;;5.12;100.00;99770.47;6153157;23;20013;-91
2022/12/22 11:36:35;;;;;;;6.20;4.72;;;;;;;4.89;100.00;99773.03;6153025;23;20016;-91
2022/12/22 11:39:11;;;;;;;4.75;4.32;;;;;;;4.94;100.00;99767.09;6148195;23;20472;-91
2022/12/22 11:42:19;;;;;;;3.58;3.35;;;;;;;4.75;100.00;99756.66;6177606;23;20013;-91
2022/12/22 11:44:55;;;;;;;6.00;3.22;;;;;;;4.77;100.00;99760.56;6132703;23;20028;-91
2022/12/22 11:47:39;;;;;;;5.82;5.25;;;;;;;4.85;100.00;99772.28;6178255;23;20019;-90
2022/12/22 11:50:13;;;;;;;5.85;3.45;;;;;;;4.66;100.00;99770.84;6152170;23;20025;-90
2022/12/22 11:52:42;;;;;;;5.97;4.65;;;;;;;4.70;100.00;99766.88;6178977;23;20017;-91
2022/12/22 11:55:12;;;;;;;4.28;3.88;;;;;;;4.74;100.00;99766.84;6177927;23;20070;-92
2022/12/22 11:58:09;;;;;;;5.00;4.18;;;;;;;4.66;100.00;99757.09;6177462;23;20465;-91
2022/12/22 12:00:41;;;;;;;7.05;4.03;;;;;;;4.77;100.00;99748.78;6175336;23;20021;-90
2022/12/22 12:03:30;;;;;;;2.63;2.50;;;;;;;4.74;100.00;99747.63;6178153;23;20021;-90
2022/12/22 12:06:43;;;;;;;9.60;5.40;;;;;;;4.75;100.00;99751.16;6152498;23;20323;-91
2022/12/22 12:09:34;;;;;;;6.13;4.05;;;;;;;4.70;100.00;99750.41;6164822;23;20024;-91
2022/12/22 12:12:02;;;;;;;13.30;7.50;;;;;;;4.68;100.00;99750.03;6151836;23;20017;-91
2022/12/22 12:14:51;;;;;;;5.05;3.92;;;;;;;4.62;100.00;99743.38;6152557;23;20381;-91
2022/12/22 12:17:33;;;;;;;6.22;3.30;;;;;;;4.55;100.00;99748.94;6179520;23;20025;-91
2022/12/22 12:20:21;;;;;;;6.35;4.30;;;;;;;4.70;100.00;99744.13;6179816;23;20040;-91
2022/12/22 12:22:52;;;;;;;4.38;2.30;;;;;;;4.87;100.00;99753.41;6181292;23;20017;-90
2022/12/22 12:25:28;;;;;;;4.55;4.15;;;;;;;4.98;100.00;99743.09;6155530;23;20024;-91
2022/12/22 12:28:19;;;;;;;4.50;4.10;;;;;;;4.97;100.00;99747.06;6178399;23;20457;-91
2022/12/22 12:31:05;;;;;;;4.30;3.67;;;;;;;4.74;100.00;99716.59;6130309;23;20484;-90
2022/12/22 12:33:59;;;;;;;4.30;3.90;;;;;;;4.81;100.00;99733.84;6155581;23;20025;-91
2022/12/22 12:36:39;;;;;;;6.95;5.22;;;;;;;4.83;100.00;99731.47;6156237;23;20021;-91
2022/12/22 12:39:23;;;;;;;5.70;5.30;;;;;;;4.84;100.00;99722.03;6181629;23;20013;-91
2022/12/22 12:41:58;;;;;;;3.60;2.67;;;;;;;4.96;100.00;99734.50;6179221;23;20088;-90
2022/12/22 12:44:27;;;;;;;10.07;1.63;;;;;;;4.90;100.00;99725.09;6179377;23;20092;-91
2022/12/22 12:46:53;;;;;;;4.10;3.80;;;;;;;5.02;100.00;99721.84;6130122;23;20005;-91
2022/12/22 12:49:34;;;;;;;2.90;2.67;;;;;;;5.11;100.00;99727.66;6154592;23;20021;-90
2022/12/22 12:52:04;;;;;;;4.22;3.92;;;;;;;5.05;100.00;99721.84;6181661;23;20019;-92
2022/12/22 12:54:33;;;;;;;6.47;5.68;;;;;;;5.07;100.00;99721.41;6129922;23;20053;-91
2022/12/22 12:57:09;;;;;;;10.30;2.88;;;;;;;5.06;100.00;99711.59;6178763;23;20012;-90
2022/12/22 12:59:41;;;;;;;2.10;2.00;;;;;;;4.98;100.00;99693.63;6178641;23;20020;-90
2022/12/22 13:02:25;;;;;;;8.57;3.40;;;;;;;5.01;100.00;99710.09;6179544;23;20013;-90
2022/12/22 13:05:12;;;;;;;4.80;3.55;;;;;;;5.09;100.00;99710.81;6177989;23;20021;-91
2022/12/22 13:08:07;;;;;;;3.03;2.78;;;;;;;5.11;100.00;99708.41;6153341;23;20016;-90
2022/12/22 13:10:35;;;;;;;2.88;2.67;;;;;;;5.04;100.00;99692.00;6179441;23;20017;-90
2022/12/22 13:13:01;;;;;;;6.03;5.15;;;;;;;4.97;100.00;99697.59;6129331;23;20374;-91
2022/12/22 13:15:28;;;;;;;4.90;4.43;;;;;;;5.03;100.00;99712.44;6129312;23;20009;-90
2022/12/22 13:17:54;;;;;;;4.25;3.30;;;;;;;5.08;100.00;99725.75;6178721;23;20024;-90
2022/12/22 13:20:32;;;;;;;7.63;5.00;;;;;;;5.16;100.00;99727.22;6153969;23;20393;-90
2022/12/22 13:22:59;;;;;;;3.80;1.83;;;;;;;5.07;100.00;99707.69;6178955;23;20009;-90
2022/12/22 13:25:38;;;;;;;3.88;3.58;;;;;;;5.09;100.00;99716.31;6154257;23;20390;-90
2022/12/22 13:28:04;;;;;;;4.03;3.65;;;;;;;5.06;100.00;99717.88;6127895;23;20025;-90
2022/12/22 13:30:30;;;;;;;7.07;6.35;;;;;;;5.02;100.00;99727.34;6178534;23;20059;-91
2022/12/22 13:33:00;;;;;;;2.95;2.75;;;;;;;5.08;100.00;99725.75;6153642;23;20017;-91
2022/12/22 13:35:36;;;;;;;7.65;5.20;;;;;;;5.04;100.00;99731.28;6155510;23;20408;-91
2022/12/22 13:38:02;;;;;;;5.18;4.68;;;;;;;4.90;100.00;99714.13;6130091;23;20472;-90
2022/12/22 13:40:30;;;;;;;6.47;3.47;;;;;;;5.02;100.00;99733.63;6179289;23;20063;-90
2022/12/22 13:43:04;;;;;;;6.30;5.22;;;;;;;4.95;100.00;99735.66;6177216;23;20017;-90
2022/12/22 13:45:38;;;;;;;8.35;3.65;;;;;;;4.70;100.00;99689.94;6153876;23;20028;-90
2022/12/22 13:48:17;;;;;;;3.88;3.63;;;;;;;4.96;100.00;99729.78;6153580;23;20029;-91
2022/12/22 13:50:50;;;;;;;4.50;2.58;;;;;;;4.89;100.00;99718.06;6154532;23;20088;-90
2022/12/22 13:53:24;;;;;;;5.40;4.20;;;;;;;5.00;100.00;99729.75;6129998;23;20013;-90
2022/12/22 13:55:50;;;;;;;12.88;5.18;;;;;;;5.00;100.00;99722.28;6153818;23;20152;-91
2022/12/22 13:58:26;;;;;;;7.05;6.32;;;;;;;4.95;100.00;99713.69;6153717;23;20040;-91
2022/12/22 14:01:01;;;;;;;3.42;3.13;;;;;;;5.00;100.00;99718.75;6178049;23;20120;-91
2022/12/22 14:03:26;;;;;;;5.95;4.45;;;;;;;4.94;100.00;99709.38;6178338;23;20021;-90
2022/12/22 14:05:52;;;;;;;5.25;4.72;;;;;;;4.84;100.00;99710.25;6178514;23;20468;-91
2022/12/22 14:08:21;;;;;;;6.82;4.68;;;;;;;4.92;100.00;99726.28;6129374;23;20068;-91
2022/12/22 14:10:47;;;;;;;5.97;4.75;;;;;;;4.90;100.00;99734.13;6153059;23;20048;-91
2022/12/22 14:13:16;;;;;;;2.92;2.80;;;;;;;4.78;100.00;99720.09;6178174;23;20354;-91
2022/12/22 14:15:43;;;;;;;2.70;2.42;;;;;;;4.80;100.00;99743.25;6128850;23;20311;-90
2022/12/22 14:18:16;;;;;;;4.05;3.72;;;;;;;4.77;100.00;99748.78;6178254;23;20013;-90
2022/12/22 14:20:44;;;;;;;3.53;3.22;;;;;;;4.66;100.00;99760.63;6177983;23;20368;-89
2022/12/22 14:23:20;;;;;;;7.88;5.65;;;;;;;4.51;100.00;99756.44;6178913;23;20450;-90
2022/12/22 14:25:46;;;;;;;5.05;4.55;;;;;;;4.44;100.00;99761.97;6128202;23;20013;-90
2022/12/22 14:28:32;;;;;;;5.85;5.30;;;;;;;4.24;100.00;99747.19;6152974;23;20009;-91
2022/12/22 14:30:59;;;;;;;3.47;3.17;;;;;;;4.27;100.00;99754.63;6153541;23;20108;-90
2022/12/22 14:33:26;;;;;;;4.18;3.88;;;;;;;4.30;100.00;99761.25;6179681;23;20008;-90
2022/12/22 14:36:05;;;;;;;4.85;4.15;;;;;;;4.14;100.00;99745.28;6152932;23;20025;-91
2022/12/22 14:38:39;;;;;;;4.40;3.45;;;;;;;4.01;100.00;99746.91;6179249;23;20017;-91
2022/12/22 14:41:40;;;;;;;6.57;4.68;;;;;;;3.86;100.00;99726.22;6177655;23;20009;-90
2022/12/22 14:44:02;;;;;;;3.63;3.35;;;;;;;3.86;100.00;99732.47;6177456;23;20318;-89
2022/12/22 14:46:28;;;;;;;5.68;5.15;;;;;;;3.98;100.00;99747.72;6152984;23;20406;-91
2022/12/22 14:48:53;;;;;;;4.20;2.95;;;;;;;3.93;100.00;99746.16;6153499;23;20009;-91
2022/12/22 14:51:19;;;;;;;6.28;4.40;;;;;;;3.88;100.00;99737.59;6178996;23;20043;-91
2022/12/22 14:53:54;;;;;;;14.65;6.82;;;;;;;3.97;100.00;99743.41;6153884;23;20388;-91
2022/12/22 14:56:21;;;;;;;7.05;6.30;;;;;;;3.95;100.00;99743.03;6153518;23;20600;-91
2022/12/22 14:58:48;;;;;;;13.52;6.72;;;;;;;4.05;100.00;99764.13;6174824;23;20032;-90
2022/12/22 15:01:26;;;;;;;6.13;5.53;;;;;;;3.89;100.00;99750.09;6176882;23;20017;-90
2022/12/22 15:04:25;;;;;;;6.80;6.03;;;;;;;3.84;100.00;99745.03;6175432;23;20021;-89
2022/12/22 15:06:50;;;;;;;5.95;5.38;;;;;;;3.82;100.00;99733.69;6112886;23;20021;-89
2022/12/22 15:09:16;;;;;;;5.13;4.70;;;;;;;3.86;100.00;99734.44;6178428;23;20017;-90
2022/12/22 15:11:43;;;;;;;3.88;3.58;;;;;;;3.88;100.00;99732.88;6177178;23;20005;-90
2022/12/22 15:14:20;;;;;;;8.35;6.10;;;;;;;3.88;100.00;99732.09;6180088;23;20032;-89
2022/12/22 15:16:46;;;;;;;9.95;6.43;;;;;;;3.88;100.00;99740.31;6178598;23;20084;-89
2022/12/22 15:19:14;;;;;;;8.85;7.40;;;;;;;3.76;100.00;99731.34;6178045;23;20416;-89
2022/12/22 15:21:40;;;;;;;11.93;6.45;;;;;;;3.72;100.00;99744.28;6177662;23;20013;-89
2022/12/22 15:24:16;;;;;;;8.90;7.18;;;;;;;3.70;100.00;99754.88;6177192;23;20378;-89
2022/12/22 15:26:43;;;;;;;8.43;6.43;;;;;;;3.76;100.00;99753.28;6153211;23;20013;-88